Time;durP1;ratioP1;P1;durP2;ratioP2;P2;SDS_P1;SDS_P2;PMS_P1;PMS_P2;Temp;Humidity;BMP_temperature;BMP_pressure;BME280_temperature;BME280_humidity;BME280_pressure;Samples;Min_cycle;Max_cycle;Signal;HPM_P1;HPM_P2
2023/08/21 00:02:18;;;;;;;;;;;;;;;;;;5064008;28;20276;-61
2023/08/21 00:04:44;;;;;;;;;;;;;;;;;;5066367;28;19920;-61
2023/08/21 00:07:11;;;;;;;;;;;;;;;;;;5064540;28;19938;-62
2023/08/21 00:09:37;;;;;;;;;;;;;;;;;;5064318;28;19913;-62
2023/08/21 00:12:03;;;;;;;;;;;;;;;;;;5062052;28;20316;-62
2023/08/21 00:14:29;;;;;;;;;;;;;;;;;;5073539;28;19912;-61
2023/08/21 00:16:54;;;;;;;;;;;;;;;;;;5067134;28;19919;-61
2023/08/21 00:19:20;;;;;;;;;;;;;;;;;;5072031;28;20027;-61
2023/08/21 00:21:46;;;;;;;;;;;;;;;;;;5073457;28;19913;-62
2023/08/21 00:24:13;;;;;;;;;;;;;;;;;;5070249;28;20323;-60
2023/08/21 00:26:39;;;;;;;;;;;;;;;;;;5062868;28;19924;-59
2023/08/21 00:29:05;;;;;;;;;;;;;;;;;;5072766;28;19913;-60
2023/08/21 00:31:31;;;;;;;;;;;;;;;;;;5073059;28;20350;-60
2023/08/21 00:33:57;;;;;;;;;;;;;;;;;;5072018;28;19999;-59
2023/08/21 00:36:23;;;;;;;;;;;;;;;;;;5070846;28;19912;-61
2023/08/21 00:38:48;;;;;;;;;;;;;;;;;;5070717;28;20035;-60
2023/08/21 00:41:14;;;;;;;;;;;;;;;;;;5072694;28;19921;-61
2023/08/21 00:43:40;;;;;;;;;;;;;;;;;;5073195;28;20381;-60
2023/08/21 00:46:07;;;;;;;;;;;;;;;;;;5072604;28;19916;-60
2023/08/21 00:48:33;;;;;;;;;;;;;;;;;;5072376;28;19938;-60
2023/08/21 00:50:59;;;;;;;;;;;;;;;;;;5072909;28;19916;-60
2023/08/21 00:53:24;;;;;;;;;;;;;;;;;;5058548;28;19919;-60
2023/08/21 00:55:50;;;;;;;;;;;;;;;;;;5053400;28;20359;-61
2023/08/21 00:58:16;;;;;;;;;;;;;;;;;;5066066;28;19917;-61
2023/08/21 01:00:42;;;;;;;;;;;;;;;;;;5072466;28;20008;-61
2023/08/21 01:03:08;;;;;;;;;;;;;;;;;;5062500;28;19913;-60
2023/08/21 01:05:34;;;;;;;;;;;;;;;;;;5064451;28;19916;-60
2023/08/21 01:08:00;;;;;;;;;;;;;;;;;;5064333;28;20395;-59
2023/08/21 01:10:27;;;;;;;;;;;;;;;;;;5072229;28;19913;-60
2023/08/21 01:12:53;;;;;;;;;;;;;;;;;;5072822;28;20368;-60
2023/08/21 01:15:19;;;;;;;;;;;;;;;;;;5072626;28;20003;-60
2023/08/21 01:17:45;;;;;;;;;;;;;;;;;;5072737;28;19998;-60
2023/08/21 01:20:10;;;;;;;;;;;;;;;;;;5067366;28;20398;-60
2023/08/21 01:22:36;;;;;;;;;;;;;;;;;;5068883;28;19919;-60
2023/08/21 01:25:02;;;;;;;;;;;;;;;;;;5065580;28;20016;-60
2023/08/21 01:27:28;;;;;;;;;;;;;;;;;;5059285;28;19951;-60
2023/08/21 01:29:54;;;;;;;;;;;;;;;;;;5068865;28;19956;-60
2023/08/21 01:32:20;;;;;;;;;;;;;;;;;;5072730;28;19915;-60
2023/08/21 01:34:46;;;;;;;;;;;;;;;;;;5072757;28;19999;-60
2023/08/21 01:37:12;;;;;;;;;;;;;;;;;;5071559;28;19955;-60
2023/08/21 01:39:38;;;;;;;;;;;;;;;;;;5058963;28;19916;-61
2023/08/21 01:42:04;;;;;;;;;;;;;;;;;;5051912;28;19920;-61
2023/08/21 01:44:30;;;;;;;;;;;;;;;;;;5064990;28;20335;-60
2023/08/21 01:46:56;;;;;;;;;;;;;;;;;;5052392;28;19962;-60
2023/08/21 01:49:22;;;;;;;;;;;;;;;;;;5052496;28;19999;-60
2023/08/21 01:51:48;;;;;;;;;;;;;;;;;;5052204;28;19994;-60
2023/08/21 01:54:13;;;;;;;;;;;;;;;;;;5051898;28;19913;-60
2023/08/21 01:56:39;;;;;;;;;;;;;;;;;;5053841;28;19923;-60
2023/08/21 01:59:06;;;;;;;;;;;;;;;;;;5065904;28;20384;-60
2023/08/21 02:01:32;;;;;;;;;;;;;;;;;;5060500;28;19912;-60
2023/08/21 02:03:58;;;;;;;;;;;;;;;;;;5070906;28;19923;-60
2023/08/21 02:06:24;;;;;;;;;;;;;;;;;;5070361;28;20415;-60
2023/08/21 02:08:50;;;;;;;;;;;;;;;;;;5062646;28;19928;-62
2023/08/21 02:11:16;;;;;;;;;;;;;;;;;;5051996;28;20067;-62
2023/08/21 02:13:42;;;;;;;;;;;;;;;;;;5069613;28;19913;-62
2023/08/21 02:16:07;;;;;;;;;;;;;;;;;;5070089;28;19958;-62
2023/08/21 02:18:33;;;;;;;;;;;;;;;;;;5070135;28;19913;-62
2023/08/21 02:20:59;;;;;;;;;;;;;;;;;;5071575;28;19917;-62
2023/08/21 02:23:25;;;;;;;;;;;;;;;;;;5071690;28;20428;-62
2023/08/21 02:25:51;;;;;;;;;;;;;;;;;;5063383;28;20031;-64
2023/08/21 02:28:17;;;;;;;;;;;;;;;;;;5066524;28;19920;-62
2023/08/21 02:30:43;;;;;;;;;;;;;;;;;;5071396;28;19913;-62
2023/08/21 02:33:09;;;;;;;;;;;;;;;;;;5063350;28;19919;-62
2023/08/21 02:35:35;;;;;;;;;;;;;;;;;;5066858;28;20009;-62
2023/08/21 02:38:01;;;;;;;;;;;;;;;;;;5070879;28;20375;-62
2023/08/21 02:40:27;;;;;;;;;;;;;;;;;;5071746;28;20010;-62
2023/08/21 02:42:53;;;;;;;;;;;;;;;;;;5071458;28;19915;-62
2023/08/21 02:45:19;;;;;;;;;;;;;;;;;;5062016;28;20365;-63
2023/08/21 02:47:45;;;;;;;;;;;;;;;;;;5059519;28;19951;-62
2023/08/21 02:50:11;;;;;;;;;;;;;;;;;;5062926;28;19921;-62
2023/08/21 02:52:37;;;;;;;;;;;;;;;;;;5071689;28;19955;-61
2023/08/21 02:55:03;;;;;;;;;;;;;;;;;;5071013;28;20650;-62
2023/08/21 02:57:29;;;;;;;;;;;;;;;;;;5071705;28;19916;-62
2023/08/21 02:59:55;;;;;;;;;;;;;;;;;;5070915;28;19908;-62
2023/08/21 03:02:21;;;;;;;;;;;;;;;;;;5071422;28;20294;-63
2023/08/21 03:04:47;;;;;;;;;;;;;;;;;;5069969;28;20376;-63
2023/08/21 03:07:13;;;;;;;;;;;;;;;;;;5070159;28;19908;-63
2023/08/21 03:09:39;;;;;;;;;;;;;;;;;;5069259;28;19948;-62
2023/08/21 03:12:04;;;;;;;;;;;;;;;;;;5054578;28;19966;-63
2023/08/21 03:14:30;;;;;;;;;;;;;;;;;;5071461;28;20004;-63
2023/08/21 03:16:56;;;;;;;;;;;;;;;;;;5071853;28;19919;-63
2023/08/21 03:19:22;;;;;;;;;;;;;;;;;;5071022;28;19956;-63
2023/08/21 03:21:48;;;;;;;;;;;;;;;;;;5074355;28;19916;-63
2023/08/21 03:24:14;;;;;;;;;;;;;;;;;;5072100;28;19915;-63
2023/08/21 03:26:40;;;;;;;;;;;;;;;;;;5066383;28;20406;-63
2023/08/21 03:29:06;;;;;;;;;;;;;;;;;;5073480;28;19913;-63
2023/08/21 03:31:32;;;;;;;;;;;;;;;;;;5070006;28;20353;-62
2023/08/21 03:33:58;;;;;;;;;;;;;;;;;;5066110;28;20003;-62
2023/08/21 03:36:30;;;;;;;;;;;;;;;;;;5056777;28;19995;-61
2023/08/21 03:38:56;;;;;;;;;;;;;;;;;;5073190;28;19912;-62
2023/08/21 03:41:22;;;;;;;;;;;;;;;;;;5074510;28;19962;-61
2023/08/21 03:43:48;;;;;;;;;;;;;;;;;;5074786;28;19952;-62
2023/08/21 03:46:14;;;;;;;;;;;;;;;;;;5064339;28;20329;-61
2023/08/21 03:48:40;;;;;;;;;;;;;;;;;;5054776;28;19909;-62
2023/08/21 03:51:06;;;;;;;;;;;;;;;;;;5053658;28;19920;-62
2023/08/21 03:53:31;;;;;;;;;;;;;;;;;;5058862;28;19951;-62
2023/08/21 03:55:57;;;;;;;;;;;;;;;;;;5059695;28;19913;-62
2023/08/21 03:58:25;;;;;;;;;;;;;;;;;;5074368;28;20429;-62
2023/08/21 04:00:51;;;;;;;;;;;;;;;;;;5073741;28;19989;-62
2023/08/21 04:03:17;;;;;;;;;;;;;;;;;;5065848;28;19974;-64
2023/08/21 04:05:43;;;;;;;;;;;;;;;;;;5071713;28;20360;-62
2023/08/21 04:08:08;;;;;;;;;;;;;;;;;;5070903;28;19998;-62
2023/08/21 04:10:34;;;;;;;;;;;;;;;;;;5067370;28;19919;-63
2023/08/21 04:13:00;;;;;;;;;;;;;;;;;;5072822;28;19955;-63
2023/08/21 04:15:26;;;;;;;;;;;;;;;;;;5070805;28;19912;-64
2023/08/21 04:17:52;;;;;;;;;;;;;;;;;;5073051;28;19982;-65
2023/08/21 04:20:18;;;;;;;;;;;;;;;;;;5067357;28;20007;-63
2023/08/21 04:22:44;;;;;;;;;;;;;;;;;;5054985;28;20352;-63
2023/08/21 04:25:11;;;;;;;;;;;;;;;;;;5071401;28;20035;-63
2023/08/21 04:27:37;;;;;;;;;;;;;;;;;;5071910;28;19912;-64
2023/08/21 04:30:02;;;;;;;;;;;;;;;;;;5072211;28;19947;-61
2023/08/21 04:32:28;;;;;;;;;;;;;;;;;;5072719;28;20011;-61
2023/08/21 04:34:54;;;;;;;;;;;;;;;;;;5072350;28;19919;-61
2023/08/21 04:37:20;;;;;;;;;;;;;;;;;;5064471;28;20315;-60
2023/08/21 04:39:46;;;;;;;;;;;;;;;;;;5067890;28;19935;-60
2023/08/21 04:42:12;;;;;;;;;;;;;;;;;;5068065;28;19948;-60
2023/08/21 04:44:38;;;;;;;;;;;;;;;;;;5071248;28;19965;-60
2023/08/21 04:47:04;;;;;;;;;;;;;;;;;;5071185;28;20296;-60
2023/08/21 04:49:30;;;;;;;;;;;;;;;;;;5063898;28;20407;-60
2023/08/21 04:51:56;;;;;;;;;;;;;;;;;;5061570;28;20020;-59
2023/08/21 04:54:22;;;;;;;;;;;;;;;;;;5071025;28;19922;-61
2023/08/21 04:56:48;;;;;;;;;;;;;;;;;;5071287;28;19914;-60
2023/08/21 04:59:14;;;;;;;;;;;;;;;;;;5072239;28;19915;-61
2023/08/21 05:01:39;;;;;;;;;;;;;;;;;;5060814;28;19940;-60
2023/08/21 05:04:05;;;;;;;;;;;;;;;;;;5061211;28;19963;-60
2023/08/21 05:06:31;;;;;;;;;;;;;;;;;;5070235;28;20431;-60
2023/08/21 05:08:57;;;;;;;;;;;;;;;;;;5068574;28;20006;-62
2023/08/21 05:11:25;;;;;;;;;;;;;;;;;;5067209;28;19920;-61
2023/08/21 05:13:51;;;;;;;;;;;;;;;;;;5070923;28;19919;-59
2023/08/21 05:16:16;;;;;;;;;;;;;;;;;;5067043;28;19999;-59
2023/08/21 05:18:42;;;;;;;;;;;;;;;;;;5069594;28;20466;-59
2023/08/21 05:21:08;;;;;;;;;;;;;;;;;;5068744;28;19917;-61
2023/08/21 05:23:34;;;;;;;;;;;;;;;;;;5061107;28;19920;-63
2023/08/21 05:26:00;;;;;;;;;;;;;;;;;;5066867;28;19960;-62
2023/08/21 05:28:26;;;;;;;;;;;;;;;;;;5064307;28;20335;-61
2023/08/21 05:30:52;;;;;;;;;;;;;;;;;;5070701;28;20028;-62
2023/08/21 05:33:18;;;;;;;;;;;;;;;;;;5066261;28;19985;-60
2023/08/21 05:35:44;;;;;;;;;;;;;;;;;;5069037;28;19912;-62
2023/08/21 05:38:10;;;;;;;;;;;;;;;;;;5069151;28;19920;-61
2023/08/21 05:40:36;;;;;;;;;;;;;;;;;;5071237;28;20368;-61
2023/08/21 05:43:01;;;;;;;;;;;;;;;;;;5070222;28;20033;-61
2023/08/21 05:45:27;;;;;;;;;;;;;;;;;;5065014;28;20054;-60
2023/08/21 05:47:53;;;;;;;;;;;;;;;;;;5064211;28;19913;-61
2023/08/21 05:50:19;;;;;;;;;;;;;;;;;;5069722;28;19979;-61
2023/08/21 05:52:45;;;;;;;;;;;;;;;;;;5060298;28;19951;-60
2023/08/21 05:55:11;;;;;;;;;;;;;;;;;;5062050;28;20298;-61
2023/08/21 05:57:37;;;;;;;;;;;;;;;;;;5063388;28;19912;-63
2023/08/21 06:00:03;;;;;;;;;;;;;;;;;;5068746;28;19997;-63
2023/08/21 06:02:29;;;;;;;;;;;;;;;;;;5068494;28;20308;-63
2023/08/21 06:04:55;;;;;;;;;;;;;;;;;;5071172;28;20002;-62
2023/08/21 06:07:21;;;;;;;;;;;;;;;;;;5069570;28;19956;-61
2023/08/21 06:09:47;;;;;;;;;;;;;;;;;;5062956;28;19919;-63
2023/08/21 06:12:12;;;;;;;;;;;;;;;;;;5069158;28;19920;-60
2023/08/21 06:14:38;;;;;;;;;;;;;;;;;;5070853;28;20360;-62
2023/08/21 06:17:05;;;;;;;;;;;;;;;;;;5071070;28;19908;-64
2023/08/21 06:19:31;;;;;;;;;;;;;;;;;;5066287;28;20253;-64
2023/08/21 06:21:57;;;;;;;;;;;;;;;;;;5071105;28;20009;-64
2023/08/21 06:24:22;;;;;;;;;;;;;;;;;;5065289;28;19956;-64
2023/08/21 06:26:48;;;;;;;;;;;;;;;;;;5065998;28;20022;-61
2023/08/21 06:29:14;;;;;;;;;;;;;;;;;;5069521;28;19920;-61
2023/08/21 06:31:40;;;;;;;;;;;;;;;;;;5063138;28;20418;-62
2023/08/21 06:34:06;;;;;;;;;;;;;;;;;;5062940;28;19991;-62
2023/08/21 06:36:32;;;;;;;;;;;;;;;;;;5068435;28;20018;-62
2023/08/21 06:38:58;;;;;;;;;;;;;;;;;;5070750;28;19913;-59
2023/08/21 06:41:25;;;;;;;;;;;;;;;;;;5066813;28;20392;-62
2023/08/21 06:43:51;;;;;;;;;;;;;;;;;;5061591;28;19920;-59
2023/08/21 06:46:17;;;;;;;;;;;;;;;;;;5070878;28;19967;-60
2023/08/21 06:48:43;;;;;;;;;;;;;;;;;;5073539;28;19916;-64
2023/08/21 06:51:09;;;;;;;;;;;;;;;;;;5068530;28;20376;-64
2023/08/21 06:53:34;;;;;;;;;;;;;;;;;;5073945;28;19962;-64
2023/08/21 06:56:00;;;;;;;;;;;;;;;;;;5072710;28;20033;-64
2023/08/21 06:58:26;;;;;;;;;;;;;;;;;;5072897;28;19913;-64
2023/08/21 07:00:52;;;;;;;;;;;;;;;;;;5068975;28;19923;-64
2023/08/21 07:03:18;;;;;;;;;;;;;;;;;;5062592;28;19972;-65
2023/08/21 07:05:44;;;;;;;;;;;;;;;;;;5071363;28;20014;-65
2023/08/21 07:08:10;;;;;;;;;;;;;;;;;;5066775;28;19919;-64
2023/08/21 07:10:36;;;;;;;;;;;;;;;;;;5064494;28;20384;-64
2023/08/21 07:13:02;;;;;;;;;;;;;;;;;;5073860;28;20406;-64
2023/08/21 07:15:28;;;;;;;;;;;;;;;;;;5071986;28;19920;-64
2023/08/21 07:17:55;;;;;;;;;;;;;;;;;;5074036;28;19924;-65
2023/08/21 07:20:21;;;;;;;;;;;;;;;;;;5064309;28;20376;-64
2023/08/21 07:22:47;;;;;;;;;;;;;;;;;;5070951;28;20007;-65
2023/08/21 07:25:13;;;;;;;;;;;;;;;;;;5064432;28;19955;-65
2023/08/21 07:27:39;;;;;;;;;;;;;;;;;;5060974;28;20327;-65
2023/08/21 07:30:05;;;;;;;;;;;;;;;;;;5070572;28;19916;-65
2023/08/21 07:32:31;;;;;;;;;;;;;;;;;;5059360;28;20388;-65
2023/08/21 07:34:57;;;;;;;;;;;;;;;;;;5065859;28;20372;-65
2023/08/21 07:37:22;;;;;;;;;;;;;;;;;;5066045;28;19959;-65
2023/08/21 07:39:48;;;;;;;;;;;;;;;;;;5061431;28;20046;-63
2023/08/21 07:42:14;;;;;;;;;;;;;;;;;;5068098;28;19985;-65
2023/08/21 07:44:40;;;;;;;;;;;;;;;;;;5065479;28;19959;-66
2023/08/21 07:47:06;;;;;;;;;;;;;;;;;;5071454;28;20019;-65
2023/08/21 07:49:32;;;;;;;;;;;;;;;;;;5070536;28;20012;-65
2023/08/21 07:51:58;;;;;;;;;;;;;;;;;;5065674;28;20329;-66
2023/08/21 07:54:24;;;;;;;;;;;;;;;;;;5066824;28;19976;-65
2023/08/21 07:56:50;;;;;;;;;;;;;;;;;;5067931;28;19958;-64
2023/08/21 07:59:16;;;;;;;;;;;;;;;;;;5068140;28;19948;-62
2023/08/21 08:01:42;;;;;;;;;;;;;;;;;;5069488;28;19922;-62
2023/08/21 08:04:07;;;;;;;;;;;;;;;;;;5069202;28;19920;-62
2023/08/21 08:06:33;;;;;;;;;;;;;;;;;;5069180;28;19968;-61
2023/08/21 08:08:59;;;;;;;;;;;;;;;;;;5071750;28;20010;-61
2023/08/21 08:11:25;;;;;;;;;;;;;;;;;;5065337;28;19952;-61
2023/08/21 08:13:51;;;;;;;;;;;;;;;;;;5066969;28;19996;-62
2023/08/21 08:16:17;;;;;;;;;;;;;;;;;;5066717;28;20125;-62
2023/08/21 08:18:43;;;;;;;;;;;;;;;;;;5070135;28;20384;-62
2023/08/21 08:21:10;;;;;;;;;;;;;;;;;;5069957;28;19992;-62
2023/08/21 08:23:36;;;;;;;;;;;;;;;;;;5070948;28;19916;-62
2023/08/21 08:26:02;;;;;;;;;;;;;;;;;;5068700;28;19940;-62
2023/08/21 08:28:28;;;;;;;;;;;;;;;;;;5069955;28;20354;-62
2023/08/21 08:30:54;;;;;;;;;;;;;;;;;;5070174;28;19920;-60
2023/08/21 08:33:20;;;;;;;;;;;;;;;;;;5068571;28;19912;-62
2023/08/21 08:35:46;;;;;;;;;;;;;;;;;;5068411;28;19967;-60
2023/08/21 08:38:11;;;;;;;;;;;;;;;;;;5067523;28;19920;-60
2023/08/21 08:40:37;;;;;;;;;;;;;;;;;;5068489;28;19912;-62
2023/08/21 08:43:05;;;;;;;;;;;;;;;;;;5064606;28;19912;-62
2023/08/21 08:45:31;;;;;;;;;;;;;;;;;;5066951;28;20015;-62
2023/08/21 08:47:57;;;;;;;;;;;;;;;;;;5068783;28;19951;-61
2023/08/21 08:50:23;;;;;;;;;;;;;;;;;;5068995;28;19974;-60
2023/08/21 08:52:48;;;;;;;;;;;;;;;;;;5069770;28;20380;-62
2023/08/21 08:55:14;;;;;;;;;;;;;;;;;;5070043;28;20012;-63
2023/08/21 08:57:40;;;;;;;;;;;;;;;;;;5069573;28;19916;-62
2023/08/21 09:00:06;;;;;;;;;;;;;;;;;;5067825;28;19917;-62
2023/08/21 09:02:32;;;;;;;;;;;;;;;;;;5068766;28;19963;-62
2023/08/21 09:04:58;;;;;;;;;;;;;;;;;;5067143;28;20376;-62
2023/08/21 09:07:24;;;;;;;;;;;;;;;;;;5067062;28;19946;-62
2023/08/21 09:09:52;;;;;;;;;;;;;;;;;;5069403;28;19964;-62
2023/08/21 09:12:18;;;;;;;;;;;;;;;;;;5069623;28;19912;-62
2023/08/21 09:14:44;;;;;;;;;;;;;;;;;;5065117;28;19952;-62
2023/08/21 09:17:10;;;;;;;;;;;;;;;;;;5066939;28;19936;-60
2023/08/21 09:19:36;;;;;;;;;;;;;;;;;;5066691;28;19962;-62
2023/08/21 09:22:02;;;;;;;;;;;;;;;;;;5070397;28;19978;-63
2023/08/21 09:24:28;;;;;;;;;;;;;;;;;;5068731;28;19957;-62
2023/08/21 09:26:54;;;;;;;;;;;;;;;;;;5066671;28;19992;-63
2023/08/21 09:29:20;;;;;;;;;;;;;;;;;;5069776;28;19927;-62
2023/08/21 09:31:46;;;;;;;;;;;;;;;;;;5064590;28;20372;-62
2023/08/21 09:34:12;;;;;;;;;;;;;;;;;;5069750;28;20361;-62
2023/08/21 09:36:39;;;;;;;;;;;;;;;;;;5070606;28;19948;-62
2023/08/21 09:39:06;;;;;;;;;;;;;;;;;;5066511;28;19961;-61
2023/08/21 09:41:32;;;;;;;;;;;;;;;;;;5069452;28;19916;-61
2023/08/21 09:43:58;;;;;;;;;;;;;;;;;;5065741;28;20405;-59
2023/08/21 09:46:24;;;;;;;;;;;;;;;;;;5070278;28;19917;-60
2023/08/21 09:48:49;;;;;;;;;;;;;;;;;;5068188;28;19961;-60
2023/08/21 09:51:15;;;;;;;;;;;;;;;;;;5067332;28;19955;-61
2023/08/21 09:53:41;;;;;;;;;;;;;;;;;;5063753;28;19927;-62
2023/08/21 09:56:08;;;;;;;;;;;;;;;;;;5067355;28;20402;-60
2023/08/21 09:58:34;;;;;;;;;;;;;;;;;;5068195;28;19913;-61
2023/08/21 10:01:00;;;;;;;;;;;;;;;;;;5063400;28;19912;-60
2023/08/21 10:03:26;;;;;;;;;;;;;;;;;;5065749;28;19952;-60
2023/08/21 10:05:52;;;;;;;;;;;;;;;;;;5069985;28;20292;-60
2023/08/21 10:08:18;;;;;;;;;;;;;;;;;;5068122;28;19916;-62
2023/08/21 10:10:44;;;;;;;;;;;;;;;;;;5065971;28;19913;-61
2023/08/21 10:13:10;;;;;;;;;;;;;;;;;;5068894;28;20359;-61
2023/08/21 10:15:35;;;;;;;;;;;;;;;;;;5069150;28;20007;-61
2023/08/21 10:18:01;;;;;;;;;;;;;;;;;;5085401;28;19983;-62
2023/08/21 10:20:27;;;;;;;;;;;;;;;;;;5067808;28;19924;-59
2023/08/21 10:22:54;;;;;;;;;;;;;;;;;;5067001;28;19968;-59
2023/08/21 10:25:21;;;;;;;;;;;;;;;;;;5071611;28;19920;-59
2023/08/21 10:27:47;;;;;;;;;;;;;;;;;;5064124;28;20765;-60
2023/08/21 10:30:14;;;;;;;;;;;;;;;;;;5064544;28;19951;-59
2023/08/21 10:32:40;;;;;;;;;;;;;;;;;;5074926;28;19919;-59
2023/08/21 10:35:06;;;;;;;;;;;;;;;;;;5068863;28;19955;-59
2023/08/21 10:37:32;;;;;;;;;;;;;;;;;;5073929;28;20371;-60
2023/08/21 10:39:58;;;;;;;;;;;;;;;;;;5067017;28;19946;-59
2023/08/21 10:42:23;;;;;;;;;;;;;;;;;;5069221;28;19908;-63
2023/08/21 10:44:52;;;;;;;;;;;;;;;;;;5073394;28;19920;-59
2023/08/21 10:47:18;;;;;;;;;;;;;;;;;;5069460;28;19920;-60
2023/08/21 10:49:44;;;;;;;;;;;;;;;;;;5065956;28;20387;-61
2023/08/21 10:52:10;;;;;;;;;;;;;;;;;;5069223;28;20372;-60
2023/08/21 10:54:36;;;;;;;;;;;;;;;;;;5071334;28;19916;-60
2023/08/21 10:57:02;;;;;;;;;;;;;;;;;;5073969;28;19916;-60
2023/08/21 10:59:28;;;;;;;;;;;;;;;;;;5074283;28;19958;-60
2023/08/21 11:01:54;;;;;;;;;;;;;;;;;;5072795;28;20307;-61
2023/08/21 11:04:20;;;;;;;;;;;;;;;;;;5071323;28;19947;-59
2023/08/21 11:06:45;;;;;;;;;;;;;;;;;;5061429;28;19921;-60
2023/08/21 11:09:11;;;;;;;;;;;;;;;;;;5072854;28;19923;-59
2023/08/21 11:11:37;;;;;;;;;;;;;;;;;;5067850;28;19985;-59
2023/08/21 11:14:03;;;;;;;;;;;;;;;;;;5074093;28;20253;-60
2023/08/21 11:16:29;;;;;;;;;;;;;;;;;;5072124;28;19916;-59
2023/08/21 11:18:55;;;;;;;;;;;;;;;;;;5064018;28;19990;-59
2023/08/21 11:21:21;;;;;;;;;;;;;;;;;;5063904;28;20036;-59
2023/08/21 11:23:47;;;;;;;;;;;;;;;;;;5072923;28;19909;-60
2023/08/21 11:26:13;;;;;;;;;;;;;;;;;;5070096;28;19925;-59
2023/08/21 11:28:39;;;;;;;;;;;;;;;;;;5073828;28;20291;-60
2023/08/21 11:31:05;;;;;;;;;;;;;;;;;;5073806;28;19962;-59
2023/08/21 11:33:30;;;;;;;;;;;;;;;;;;5073858;28;19912;-59
2023/08/21 11:35:58;;;;;;;;;;;;;;;;;;5068042;28;20028;-61
2023/08/21 11:38:25;;;;;;;;;;;;;;;;;;5056466;28;19946;-59
2023/08/21 11:40:51;;;;;;;;;;;;;;;;;;5072070;28;19912;-59
2023/08/21 11:43:17;;;;;;;;;;;;;;;;;;5062518;28;19916;-59
2023/08/21 11:45:43;;;;;;;;;;;;;;;;;;5059503;28;20281;-59
2023/08/21 11:48:09;;;;;;;;;;;;;;;;;;5066798;28;19913;-57
2023/08/21 11:50:35;;;;;;;;;;;;;;;;;;5064387;28;19916;-57
2023/08/21 11:53:01;;;;;;;;;;;;;;;;;;5064930;28;19979;-61
2023/08/21 11:55:26;;;;;;;;;;;;;;;;;;5059134;28;19917;-60
2023/08/21 11:57:53;;;;;;;;;;;;;;;;;;5072644;28;19916;-59
2023/08/21 12:00:19;;;;;;;;;;;;;;;;;;5068723;28;20332;-57
2023/08/21 12:02:45;;;;;;;;;;;;;;;;;;5063647;28;20288;-60
2023/08/21 12:05:11;;;;;;;;;;;;;;;;;;5064642;28;19943;-58
2023/08/21 12:07:37;;;;;;;;;;;;;;;;;;5066099;28;19999;-61
2023/08/21 12:10:03;;;;;;;;;;;;;;;;;;5067424;28;20359;-61
2023/08/21 12:12:29;;;;;;;;;;;;;;;;;;5073128;28;20388;-61
2023/08/21 12:14:54;;;;;;;;;;;;;;;;;;5068436;28;19955;-62
2023/08/21 12:17:20;;;;;;;;;;;;;;;;;;5064490;28;19912;-61
2023/08/21 12:19:46;;;;;;;;;;;;;;;;;;5064664;28;19920;-61
2023/08/21 12:22:12;;;;;;;;;;;;;;;;;;5071243;28;19960;-62
2023/08/21 12:24:38;;;;;;;;;;;;;;;;;;5072697;28;19913;-62
2023/08/21 12:27:04;;;;;;;;;;;;;;;;;;5068645;28;19963;-62
2023/08/21 12:29:30;;;;;;;;;;;;;;;;;;5068023;28;19938;-61
2023/08/21 12:31:56;;;;;;;;;;;;;;;;;;5069970;28;20311;-61
2023/08/21 12:34:22;;;;;;;;;;;;;;;;;;5071154;28;20005;-61
2023/08/21 12:36:48;;;;;;;;;;;;;;;;;;5064309;28;19913;-62
2023/08/21 12:39:15;;;;;;;;;;;;;;;;;;5066274;28;19912;-63
2023/08/21 12:41:41;;;;;;;;;;;;;;;;;;5065635;28;19923;-64
2023/08/21 12:44:08;;;;;;;;;;;;;;;;;;5059426;28;20311;-64
2023/08/21 12:46:34;;;;;;;;;;;;;;;;;;5057925;28;19924;-63
2023/08/21 12:49:01;;;;;;;;;;;;;;;;;;5064126;28;19916;-64
2023/08/21 12:51:26;;;;;;;;;;;;;;;;;;5070724;28;20299;-64
2023/08/21 12:53:52;;;;;;;;;;;;;;;;;;5065106;28;19960;-63
2023/08/21 12:56:18;;;;;;;;;;;;;;;;;;5058527;28;19917;-64
2023/08/21 12:58:44;;;;;;;;;;;;;;;;;;5062442;28;19955;-64
2023/08/21 13:01:10;;;;;;;;;;;;;;;;;;5060385;28;20357;-65
2023/08/21 13:03:36;;;;;;;;;;;;;;;;;;5061867;28;20017;-65
2023/08/21 13:06:02;;;;;;;;;;;;;;;;;;5064290;28;19956;-64
2023/08/21 13:08:28;;;;;;;;;;;;;;;;;;5060315;28;19990;-64
2023/08/21 13:10:54;;;;;;;;;;;;;;;;;;5065728;28;19947;-65
2023/08/21 13:13:20;;;;;;;;;;;;;;;;;;5061428;28;20010;-64
2023/08/21 13:15:46;;;;;;;;;;;;;;;;;;5067945;28;19923;-65
2023/08/21 13:18:14;;;;;;;;;;;;;;;;;;5070508;28;19917;-64
2023/08/21 13:20:40;;;;;;;;;;;;;;;;;;5058390;28;19916;-64
2023/08/21 13:23:06;;;;;;;;;;;;;;;;;;5064417;28;19970;-64
2023/08/21 13:25:32;;;;;;;;;;;;;;;;;;5061259;28;19935;-65
2023/08/21 13:27:58;;;;;;;;;;;;;;;;;;5063790;28;19917;-65
2023/08/21 13:30:24;;;;;;;;;;;;;;;;;;5062953;28;19985;-64
2023/08/21 13:32:50;;;;;;;;;;;;;;;;;;5058801;28;20337;-64
2023/08/21 13:35:16;;;;;;;;;;;;;;;;;;5066596;28;19999;-65
2023/08/21 13:37:42;;;;;;;;;;;;;;;;;;5069785;28;19916;-65
2023/08/21 13:40:13;;;;;;;;;;;;;;;;;;5065957;28;19912;-65
2023/08/21 13:42:42;;;;;;;;;;;;;;;;;;5065742;28;19913;-65
2023/08/21 13:45:09;;;;;;;;;;;;;;;;;;5062754;28;20003;-65
2023/08/21 13:47:35;;;;;;;;;;;;;;;;;;5067776;28;19969;-64
2023/08/21 13:50:01;;;;;;;;;;;;;;;;;;5068642;28;19913;-64
2023/08/21 13:52:27;;;;;;;;;;;;;;;;;;5060809;28;19920;-64
2023/08/21 13:54:53;;;;;;;;;;;;;;;;;;5071416;28;19919;-64
2023/08/21 13:57:19;;;;;;;;;;;;;;;;;;5069727;28;19948;-64
2023/08/21 13:59:44;;;;;;;;;;;;;;;;;;5065048;28;19951;-65
2023/08/21 14:02:10;;;;;;;;;;;;;;;;;;5064277;28;19954;-64
2023/08/21 14:04:37;;;;;;;;;;;;;;;;;;5061667;28;19920;-65
2023/08/21 14:07:03;;;;;;;;;;;;;;;;;;5067897;28;19980;-65
2023/08/21 14:09:28;;;;;;;;;;;;;;;;;;5065642;28;19959;-64
2023/08/21 14:11:54;;;;;;;;;;;;;;;;;;5067559;28;19912;-65
2023/08/21 14:14:20;;;;;;;;;;;;;;;;;;5063815;28;20377;-65
2023/08/21 14:16:46;;;;;;;;;;;;;;;;;;5061396;28;19980;-65
2023/08/21 14:19:12;;;;;;;;;;;;;;;;;;5067084;28;19955;-64
2023/08/21 14:21:38;;;;;;;;;;;;;;;;;;5068090;28;20003;-65
2023/08/21 14:24:04;;;;;;;;;;;;;;;;;;5070443;28;19915;-64
2023/08/21 14:26:30;;;;;;;;;;;;;;;;;;5063445;28;19968;-65
2023/08/21 14:28:56;;;;;;;;;;;;;;;;;;5059119;28;19912;-64
2023/08/21 14:31:21;;;;;;;;;;;;;;;;;;5056926;28;21878;-64
2023/08/21 14:33:47;;;;;;;;;;;;;;;;;;5060322;28;19913;-63
2023/08/21 14:36:13;;;;;;;;;;;;;;;;;;5058548;28;19939;-64
2023/08/21 14:38:39;;;;;;;;;;;;;;;;;;5063773;28;20279;-64
2023/08/21 14:41:05;;;;;;;;;;;;;;;;;;5070396;28;19915;-63
2023/08/21 14:43:32;;;;;;;;;;;;;;;;;;5056414;28;19917;-63
2023/08/21 14:45:58;;;;;;;;;;;;;;;;;;5060127;28;19912;-60
2023/08/21 14:48:23;;;;;;;;;;;;;;;;;;5051723;28;20486;-62
2023/08/21 14:50:49;;;;;;;;;;;;;;;;;;5056725;28;19913;-59
2023/08/21 14:53:15;;;;;;;;;;;;;;;;;;5049710;28;20132;-63
2023/08/21 14:55:41;;;;;;;;;;;;;;;;;;5061581;28;19955;-62
2023/08/21 14:58:09;;;;;;;;;;;;;;;;;;5070861;28;20000;-64
2023/08/21 15:00:35;;;;;;;;;;;;;;;;;;5064316;28;19917;-63
2023/08/21 15:03:01;;;;;;;;;;;;;;;;;;5064826;28;19985;-63
2023/08/21 15:05:27;;;;;;;;;;;;;;;;;;5059096;28;19950;-63
2023/08/21 15:07:54;;;;;;;;;;;;;;;;;;5062170;28;19917;-63
2023/08/21 15:10:20;;;;;;;;;;;;;;;;;;5068117;28;19916;-63
2023/08/21 15:12:46;;;;;;;;;;;;;;;;;;5072598;28;19923;-63
2023/08/21 15:15:12;;;;;;;;;;;;;;;;;;5063484;28;19943;-63
2023/08/21 15:17:38;;;;;;;;;;;;;;;;;;5063214;28;19955;-63
2023/08/21 15:20:06;;;;;;;;;;;;;;;;;;5070045;28;20405;-63
2023/08/21 15:22:32;;;;;;;;;;;;;;;;;;5082634;28;20357;-63
2023/08/21 15:24:58;;;;;;;;;;;;;;;;;;5071718;28;20015;-58
2023/08/21 15:27:26;;;;;;;;;;;;;;;;;;5062485;28;21553;-59
2023/08/21 15:29:52;;;;;;;;;;;;;;;;;;5067150;28;19943;-59
2023/08/21 15:32:18;;;;;;;;;;;;;;;;;;5058164;28;19925;-59
2023/08/21 15:34:44;;;;;;;;;;;;;;;;;;5067701;28;19932;-64
2023/08/21 15:37:10;;;;;;;;;;;;;;;;;;5071168;28;19951;-59
2023/08/21 15:39:35;;;;;;;;;;;;;;;;;;5066315;28;19912;-60
2023/08/21 15:42:01;;;;;;;;;;;;;;;;;;5059751;28;20376;-59
2023/08/21 15:44:27;;;;;;;;;;;;;;;;;;5066319;28;19939;-64
2023/08/21 15:46:53;;;;;;;;;;;;;;;;;;5065104;28;19960;-59
2023/08/21 15:49:19;;;;;;;;;;;;;;;;;;5066650;28;20445;-58
2023/08/21 15:51:46;;;;;;;;;;;;;;;;;;5064798;28;19913;-59
2023/08/21 15:54:12;;;;;;;;;;;;;;;;;;5066897;28;20395;-58
2023/08/21 15:56:38;;;;;;;;;;;;;;;;;;5059639;28;19983;-59
2023/08/21 15:59:04;;;;;;;;;;;;;;;;;;5062517;28;19917;-61
2023/08/21 16:01:30;;;;;;;;;;;;;;;;;;5066218;28;20406;-58
2023/08/21 16:03:56;;;;;;;;;;;;;;;;;;5064532;28;19913;-58
2023/08/21 16:06:22;;;;;;;;;;;;;;;;;;5061168;28;19920;-59
2023/08/21 16:08:48;;;;;;;;;;;;;;;;;;5062292;28;20040;-61
2023/08/21 16:11:14;;;;;;;;;;;;;;;;;;5059417;28;20008;-60
2023/08/21 16:13:40;;;;;;;;;;;;;;;;;;5066061;28;20377;-59
2023/08/21 16:16:06;;;;;;;;;;;;;;;;;;5066993;28;19979;-60
2023/08/21 16:18:37;;;;;;;;;;;;;;;;;;5058065;28;20011;-60
2023/08/21 16:21:03;;;;;;;;;;;;;;;;;;5067371;28;19924;-61
2023/08/21 16:23:29;;;;;;;;;;;;;;;;;;5062593;28;20291;-58
2023/08/21 16:25:54;;;;;;;;;;;;;;;;;;5072520;28;19924;-60
2023/08/21 16:28:20;;;;;;;;;;;;;;;;;;5065873;28;19913;-59
2023/08/21 16:30:46;;;;;;;;;;;;;;;;;;5067886;28;20655;-60
2023/08/21 16:33:12;;;;;;;;;;;;;;;;;;5073030;28;19973;-59
2023/08/21 16:35:38;;;;;;;;;;;;;;;;;;5072845;28;19999;-60
2023/08/21 16:38:04;;;;;;;;;;;;;;;;;;5071926;28;19932;-60